| Date | Time | Temp. (oF) | Dew Point (oF) | Rel. Hum. (%) | Press. (in.) | Wind Dir. | Wind Speed (mph) | Hourly Rainfall (in.) |
|
|---|---|---|---|---|---|---|---|---|---|
| 1 | 05/04 | 00:00 | 55 | 53 | 93 | 29.88 | NE | 9 | 0.00 |
| 2 | 05/03 | 23:00 | 56 | 53 | 91 | 29.86 | E | 3 | 0.00 |
| 3 | 05/03 | 22:00 | 57 | 53 | 87 | 29.85 | E | 9 | 0.00 |
| 4 | 05/03 | 21:00 | 60 | 55 | 84 | 29.84 | SSE | 8 | 0.00 |
| 5 | 05/03 | 20:00 | 61 | 55 | 83 | 29.83 | ENE | 4 | 0.00 |
| 6 | 05/03 | 19:00 | 64 | 58 | 81 | 29.83 | NE | 7 | 0.00 |
| 7 | 05/03 | 18:00 | 65 | 59 | 82 | 29.82 | E | 6 | 0.00 |
| 8 | 05/03 | 17:00 | 65 | 58 | 79 | 29.82 | NNW | 2 | 0.00 |
| 9 | 05/03 | 16:00 | 63 | 57 | 83 | 29.86 | E | 10 | 0.00 |
| 10 | 05/03 | 15:00 | 61 | 56 | 86 | 29.90 | E | 3 | 0.00 |
| 11 | 05/03 | 14:00 | 59 | 55 | 88 | 29.92 | ESE | 3 | 0.00 |
| 12 | 05/03 | 13:00 | 57 | 54 | 91 | 29.96 | SE | 6 | 0.00 |
| 13 | 05/03 | 12:00 | 56 | 54 | 94 | 29.98 | E | 8 | 0.00 |
| 14 | 05/03 | 11:00 | 54 | 52 | 94 | 29.99 | SSE | 6 | 0.00 |
| 15 | 05/03 | 10:00 | 54 | 52 | 96 | 29.99 | ESE | 3 | 0.00 |
| 16 | 05/03 | 09:00 | 53 | 52 | 97 | 29.99 | E | 5 | 0.00 |
| 17 | 05/03 | 08:00 | 53 | 52 | 97 | 30.00 | ENE | 8 | 0.00 |
| 18 | 05/03 | 07:00 | 54 | 53 | 97 | 29.99 | SSE | 3 | 0.00 |
| 19 | 05/03 | 06:00 | 54 | 52 | 96 | 29.97 | ESE | 5 | 0.00 |
| 20 | 05/03 | 05:00 | 55 | 53 | 95 | 29.96 | SE | 3 | 0.00 |
| 21 | 05/03 | 04:00 | 55 | 53 | 94 | 29.95 | ENE | 5 | 0.00 |
| 22 | 05/03 | 03:00 | 54 | 52 | 93 | 29.95 | ESE | 4 | 0.00 |
| 23 | 05/03 | 02:00 | 56 | 52 | 89 | 29.97 | ESE | 11 | 0.00 |
| 24 | 05/03 | 01:00 | 58 | 53 | 84 | 29.98 | NE | 4 | 0.00 |